sensor_id;sensor_type;location;lat;lon;timestamp;P1;durP1;ratioP1;P2;durP2;ratioP2
23146;SDS011;11742;53.532;-1.478;2022-12-16T00:01:12;5.00;;;2.65;;
23146;SDS011;11742;53.532;-1.478;2022-12-16T00:03:46;4.88;;;2.78;;
23146;SDS011;11742;53.532;-1.478;2022-12-16T00:06:14;5.85;;;2.92;;
23146;SDS011;11742;53.532;-1.478;2022-12-16T00:08:40;6.43;;;2.80;;
23146;SDS011;11742;53.532;-1.478;2022-12-16T00:11:06;6.40;;;2.67;;
23146;SDS011;11742;53.532;-1.478;2022-12-16T00:13:32;4.35;;;2.67;;
23146;SDS011;11742;53.532;-1.478;2022-12-16T00:16:03;7.47;;;2.83;;
23146;SDS011;11742;53.532;-1.478;2022-12-16T00:18:30;4.97;;;2.45;;
23146;SDS011;11742;53.532;-1.478;2022-12-16T00:20:55;4.43;;;2.42;;
23146;SDS011;11742;53.532;-1.478;2022-12-16T00:23:21;4.78;;;2.65;;
23146;SDS011;11742;53.532;-1.478;2022-12-16T00:25:47;10.02;;;3.42;;
23146;SDS011;11742;53.532;-1.478;2022-12-16T00:28:14;4.30;;;2.38;;
23146;SDS011;11742;53.532;-1.478;2022-12-16T00:30:41;6.10;;;2.40;;
23146;SDS011;11742;53.532;-1.478;2022-12-16T00:33:06;7.47;;;2.65;;
23146;SDS011;11742;53.532;-1.478;2022-12-16T00:35:32;4.10;;;2.40;;
23146;SDS011;11742;53.532;-1.478;2022-12-16T00:37:58;5.10;;;2.72;;
23146;SDS011;11742;53.532;-1.478;2022-12-16T00:40:24;4.80;;;2.45;;
23146;SDS011;11742;53.532;-1.478;2022-12-16T00:42:50;8.85;;;2.70;;
23146;SDS011;11742;53.532;-1.478;2022-12-16T00:45:16;4.63;;;2.53;;
23146;SDS011;11742;53.532;-1.478;2022-12-16T00:47:42;5.97;;;3.00;;
23146;SDS011;11742;53.532;-1.478;2022-12-16T00:50:07;5.22;;;2.40;;
23146;SDS011;11742;53.532;-1.478;2022-12-16T00:52:33;6.93;;;3.53;;
23146;SDS011;11742;53.532;-1.478;2022-12-16T00:54:59;4.60;;;2.67;;
23146;SDS011;11742;53.532;-1.478;2022-12-16T00:57:24;5.00;;;2.47;;
23146;SDS011;11742;53.532;-1.478;2022-12-16T00:59:50;6.40;;;2.10;;
23146;SDS011;11742;53.532;-1.478;2022-12-16T01:02:16;7.15;;;2.70;;
23146;SDS011;11742;53.532;-1.478;2022-12-16T01:04:42;3.30;;;1.92;;
23146;SDS011;11742;53.532;-1.478;2022-12-16T01:07:07;7.10;;;2.72;;
23146;SDS011;11742;53.532;-1.478;2022-12-16T01:09:34;4.03;;;1.90;;
23146;SDS011;11742;53.532;-1.478;2022-12-16T01:12:00;4.15;;;1.83;;
23146;SDS011;11742;53.532;-1.478;2022-12-16T01:14:26;4.32;;;2.08;;
23146;SDS011;11742;53.532;-1.478;2022-12-16T01:16:52;5.35;;;2.15;;
23146;SDS011;11742;53.532;-1.478;2022-12-16T01:19:17;4.90;;;2.33;;
23146;SDS011;11742;53.532;-1.478;2022-12-16T01:21:43;4.03;;;1.70;;
23146;SDS011;11742;53.532;-1.478;2022-12-16T01:24:09;3.92;;;1.85;;
23146;SDS011;11742;53.532;-1.478;2022-12-16T01:26:35;3.50;;;1.70;;
23146;SDS011;11742;53.532;-1.478;2022-12-16T01:29:01;3.67;;;1.75;;
23146;SDS011;11742;53.532;-1.478;2022-12-16T01:31:27;3.35;;;1.60;;
23146;SDS011;11742;53.532;-1.478;2022-12-16T01:33:52;4.07;;;1.42;;
23146;SDS011;11742;53.532;-1.478;2022-12-16T01:36:18;3.10;;;1.58;;
23146;SDS011;11742;53.532;-1.478;2022-12-16T01:38:44;5.53;;;2.17;;
23146;SDS011;11742;53.532;-1.478;2022-12-16T01:41:11;3.97;;;1.60;;
23146;SDS011;11742;53.532;-1.478;2022-12-16T01:43:41;2.95;;;1.58;;
23146;SDS011;11742;53.532;-1.478;2022-12-16T01:48:44;3.63;;;1.60;;
23146;SDS011;11742;53.532;-1.478;2022-12-16T01:51:30;4.03;;;1.70;;
23146;SDS011;11742;53.532;-1.478;2022-12-16T01:54:04;4.25;;;1.92;;
23146;SDS011;11742;53.532;-1.478;2022-12-16T01:56:30;3.45;;;2.15;;
23146;SDS011;11742;53.532;-1.478;2022-12-16T01:58:58;3.25;;;1.80;;
23146;SDS011;11742;53.532;-1.478;2022-12-16T02:01:25;3.72;;;1.45;;
23146;SDS011;11742;53.532;-1.478;2022-12-16T02:03:51;3.13;;;1.60;;
23146;SDS011;11742;53.532;-1.478;2022-12-16T02:06:20;2.13;;;1.40;;
23146;SDS011;11742;53.532;-1.478;2022-12-16T02:08:46;2.58;;;1.25;;
23146;SDS011;11742;53.532;-1.478;2022-12-16T02:11:24;4.07;;;1.58;;
23146;SDS011;11742;53.532;-1.478;2022-12-16T02:14:10;4.93;;;1.80;;
23146;SDS011;11742;53.532;-1.478;2022-12-16T02:22:48;2.95;;;1.20;;
23146;SDS011;11742;53.532;-1.478;2022-12-16T02:28:47;2.85;;;1.63;;
23146;SDS011;11742;53.532;-1.478;2022-12-16T02:39:11;3.65;;;1.55;;
23146;SDS011;11742;53.532;-1.478;2022-12-16T02:44:13;3.53;;;1.58;;
23146;SDS011;11742;53.532;-1.478;2022-12-16T02:46:46;2.80;;;1.50;;
23146;SDS011;11742;53.532;-1.478;2022-12-16T02:51:45;4.93;;;1.90;;
23146;SDS011;11742;53.532;-1.478;2022-12-16T02:54:12;3.38;;;1.50;;
23146;SDS011;11742;53.532;-1.478;2022-12-16T02:59:15;2.58;;;1.27;;
23146;SDS011;11742;53.532;-1.478;2022-12-16T03:01:47;3.30;;;1.75;;
23146;SDS011;11742;53.532;-1.478;2022-12-16T03:04:25;3.22;;;1.77;;
23146;SDS011;11742;53.532;-1.478;2022-12-16T03:06:51;4.40;;;1.70;;
23146;SDS011;11742;53.532;-1.478;2022-12-16T03:09:20;3.60;;;1.40;;
23146;SDS011;11742;53.532;-1.478;2022-12-16T03:11:52;3.92;;;1.40;;
23146;SDS011;11742;53.532;-1.478;2022-12-16T03:14:19;2.65;;;1.38;;
23146;SDS011;11742;53.532;-1.478;2022-12-16T03:16:48;3.00;;;1.92;;
23146;SDS011;11742;53.532;-1.478;2022-12-16T03:19:15;3.38;;;1.27;;
23146;SDS011;11742;53.532;-1.478;2022-12-16T03:21:48;1.75;;;1.20;;
23146;SDS011;11742;53.532;-1.478;2022-12-16T03:24:20;2.50;;;1.40;;
23146;SDS011;11742;53.532;-1.478;2022-12-16T03:29:23;1.98;;;1.55;;
23146;SDS011;11742;53.532;-1.478;2022-12-16T03:32:11;2.17;;;1.15;;
23146;SDS011;11742;53.532;-1.478;2022-12-16T03:34:50;2.00;;;0.98;;
23146;SDS011;11742;53.532;-1.478;2022-12-16T03:37:21;2.75;;;1.02;;
23146;SDS011;11742;53.532;-1.478;2022-12-16T03:39:50;1.60;;;0.90;;
23146;SDS011;11742;53.532;-1.478;2022-12-16T03:42:18;1.85;;;1.20;;
23146;SDS011;11742;53.532;-1.478;2022-12-16T03:44:44;3.05;;;1.10;;
23146;SDS011;11742;53.532;-1.478;2022-12-16T03:47:12;1.73;;;0.90;;
23146;SDS011;11742;53.532;-1.478;2022-12-16T03:49:38;3.17;;;1.15;;
23146;SDS011;11742;53.532;-1.478;2022-12-16T03:52:04;2.13;;;1.10;;
23146;SDS011;11742;53.532;-1.478;2022-12-16T03:54:30;2.42;;;1.15;;
23146;SDS011;11742;53.532;-1.478;2022-12-16T03:56:56;3.28;;;1.45;;
23146;SDS011;11742;53.532;-1.478;2022-12-16T03:59:22;3.22;;;1.15;;
23146;SDS011;11742;53.532;-1.478;2022-12-16T04:01:48;2.67;;;0.90;;
23146;SDS011;11742;53.532;-1.478;2022-12-16T04:04:14;2.83;;;1.08;;
23146;SDS011;11742;53.532;-1.478;2022-12-16T04:06:40;1.58;;;0.82;;
23146;SDS011;11742;53.532;-1.478;2022-12-16T04:09:05;2.58;;;1.20;;
23146;SDS011;11742;53.532;-1.478;2022-12-16T04:11:31;1.23;;;0.90;;
23146;SDS011;11742;53.532;-1.478;2022-12-16T04:14:16;6.40;;;1.35;;
23146;SDS011;11742;53.532;-1.478;2022-12-16T04:17:00;0.90;;;0.80;;
23146;SDS011;11742;53.532;-1.478;2022-12-16T04:19:44;1.52;;;0.90;;
23146;SDS011;11742;53.532;-1.478;2022-12-16T04:22:39;2.15;;;0.90;;
23146;SDS011;11742;53.532;-1.478;2022-12-16T04:25:32;2.95;;;0.77;;
23146;SDS011;11742;53.532;-1.478;2022-12-16T04:28:00;4.43;;;0.98;;
23146;SDS011;11742;53.532;-1.478;2022-12-16T04:30:27;2.78;;;0.82;;
23146;SDS011;11742;53.532;-1.478;2022-12-16T04:32:59;1.85;;;0.82;;
23146;SDS011;11742;53.532;-1.478;2022-12-16T04:35:45;1.02;;;0.80;;
23146;SDS011;11742;53.532;-1.478;2022-12-16T04:38:30;2.83;;;0.90;;
23146;SDS011;11742;53.532;-1.478;2022-12-16T04:41:14;1.75;;;0.88;;
23146;SDS011;11742;53.532;-1.478;2022-12-16T04:43:59;1.08;;;0.80;;
23146;SDS011;11742;53.532;-1.478;2022-12-16T04:46:43;2.05;;;1.17;;
23146;SDS011;11742;53.532;-1.478;2022-12-16T04:49:27;2.13;;;0.80;;
23146;SDS011;11742;53.532;-1.478;2022-12-16T04:52:12;1.13;;;0.60;;
23146;SDS011;11742;53.532;-1.478;2022-12-16T04:54:56;1.00;;;0.60;;
23146;SDS011;11742;53.532;-1.478;2022-12-16T04:57:42;1.02;;;0.55;;
23146;SDS011;11742;53.532;-1.478;2022-12-16T05:00:31;1.83;;;0.85;;
23146;SDS011;11742;53.532;-1.478;2022-12-16T05:03:16;1.33;;;0.57;;
23146;SDS011;11742;53.532;-1.478;2022-12-16T05:06:00;2.03;;;0.68;;
23146;SDS011;11742;53.532;-1.478;2022-12-16T05:08:45;0.73;;;0.55;;
23146;SDS011;11742;53.532;-1.478;2022-12-16T05:11:29;0.88;;;0.57;;
23146;SDS011;11742;53.532;-1.478;2022-12-16T05:14:14;0.98;;;0.65;;
23146;SDS011;11742;53.532;-1.478;2022-12-16T05:16:58;1.45;;;0.60;;
23146;SDS011;11742;53.532;-1.478;2022-12-16T05:19:42;0.77;;;0.60;;
23146;SDS011;11742;53.532;-1.478;2022-12-16T05:22:26;0.60;;;0.43;;
23146;SDS011;11742;53.532;-1.478;2022-12-16T05:25:11;0.52;;;0.52;;
23146;SDS011;11742;53.532;-1.478;2022-12-16T05:27:55;2.63;;;0.70;;
23146;SDS011;11742;53.532;-1.478;2022-12-16T05:30:40;1.48;;;0.75;;
23146;SDS011;11742;53.532;-1.478;2022-12-16T05:33:24;0.63;;;0.57;;
23146;SDS011;11742;53.532;-1.478;2022-12-16T05:36:09;1.23;;;0.63;;
23146;SDS011;11742;53.532;-1.478;2022-12-16T05:38:53;1.60;;;0.80;;
23146;SDS011;11742;53.532;-1.478;2022-12-16T05:41:38;0.65;;;0.52;;
23146;SDS011;11742;53.532;-1.478;2022-12-16T05:44:22;2.45;;;0.60;;
23146;SDS011;11742;53.532;-1.478;2022-12-16T05:47:07;3.70;;;0.55;;
23146;SDS011;11742;53.532;-1.478;2022-12-16T05:49:51;1.30;;;0.80;;
23146;SDS011;11742;53.532;-1.478;2022-12-16T05:52:36;1.08;;;0.60;;
23146;SDS011;11742;53.532;-1.478;2022-12-16T05:55:21;2.10;;;0.65;;
23146;SDS011;11742;53.532;-1.478;2022-12-16T05:58:05;1.35;;;0.65;;
23146;SDS011;11742;53.532;-1.478;2022-12-16T06:00:51;1.23;;;0.70;;
23146;SDS011;11742;53.532;-1.478;2022-12-16T06:03:36;2.40;;;0.90;;
23146;SDS011;11742;53.532;-1.478;2022-12-16T06:06:20;1.67;;;0.60;;
23146;SDS011;11742;53.532;-1.478;2022-12-16T06:09:05;1.25;;;0.88;;
23146;SDS011;11742;53.532;-1.478;2022-12-16T06:11:49;2.25;;;0.70;;
23146;SDS011;11742;53.532;-1.478;2022-12-16T06:14:34;1.52;;;0.90;;
23146;SDS011;11742;53.532;-1.478;2022-12-16T06:17:19;3.50;;;0.82;;
23146;SDS011;11742;53.532;-1.478;2022-12-16T06:20:04;2.88;;;0.85;;
23146;SDS011;11742;53.532;-1.478;2022-12-16T06:22:52;3.13;;;1.02;;
23146;SDS011;11742;53.532;-1.478;2022-12-16T06:25:37;0.75;;;0.75;;
23146;SDS011;11742;53.532;-1.478;2022-12-16T06:28:21;3.85;;;0.80;;
23146;SDS011;11742;53.532;-1.478;2022-12-16T06:31:05;1.77;;;1.00;;
23146;SDS011;11742;53.532;-1.478;2022-12-16T06:33:50;0.98;;;0.90;;
23146;SDS011;11742;53.532;-1.478;2022-12-16T06:36:34;1.52;;;0.80;;
23146;SDS011;11742;53.532;-1.478;2022-12-16T06:39:18;2.55;;;0.98;;
23146;SDS011;11742;53.532;-1.478;2022-12-16T06:42:03;2.75;;;0.90;;
23146;SDS011;11742;53.532;-1.478;2022-12-16T06:44:47;0.95;;;0.82;;
23146;SDS011;11742;53.532;-1.478;2022-12-16T06:47:31;1.48;;;1.00;;
23146;SDS011;11742;53.532;-1.478;2022-12-16T06:50:16;2.00;;;0.80;;
23146;SDS011;11742;53.532;-1.478;2022-12-16T06:53:00;2.53;;;0.93;;
23146;SDS011;11742;53.532;-1.478;2022-12-16T06:55:44;3.47;;;1.13;;
23146;SDS011;11742;53.532;-1.478;2022-12-16T06:58:29;1.58;;;1.02;;
23146;SDS011;11742;53.532;-1.478;2022-12-16T07:01:13;2.65;;;0.90;;
23146;SDS011;11742;53.532;-1.478;2022-12-16T07:03:57;3.53;;;0.95;;
23146;SDS011;11742;53.532;-1.478;2022-12-16T07:06:42;1.90;;;1.00;;
23146;SDS011;11742;53.532;-1.478;2022-12-16T07:09:26;2.28;;;1.10;;
23146;SDS011;11742;53.532;-1.478;2022-12-16T07:12:10;4.25;;;1.25;;
23146;SDS011;11742;53.532;-1.478;2022-12-16T07:14:55;1.35;;;1.20;;
23146;SDS011;11742;53.532;-1.478;2022-12-16T07:17:39;2.97;;;1.30;;
23146;SDS011;11742;53.532;-1.478;2022-12-16T07:20:24;1.38;;;1.10;;
23146;SDS011;11742;53.532;-1.478;2022-12-16T07:23:08;1.00;;;0.90;;
23146;SDS011;11742;53.532;-1.478;2022-12-16T07:25:52;2.78;;;1.08;;
23146;SDS011;11742;53.532;-1.478;2022-12-16T07:28:37;1.73;;;1.25;;
23146;SDS011;11742;53.532;-1.478;2022-12-16T07:31:21;3.83;;;1.30;;
23146;SDS011;11742;53.532;-1.478;2022-12-16T07:34:06;1.48;;;1.05;;
23146;SDS011;11742;53.532;-1.478;2022-12-16T07:36:50;1.85;;;1.08;;
23146;SDS011;11742;53.532;-1.478;2022-12-16T07:39:34;2.42;;;1.17;;
23146;SDS011;11742;53.532;-1.478;2022-12-16T07:42:19;2.20;;;1.10;;
23146;SDS011;11742;53.532;-1.478;2022-12-16T07:45:03;3.08;;;1.10;;
23146;SDS011;11742;53.532;-1.478;2022-12-16T07:47:48;1.38;;;1.00;;
23146;SDS011;11742;53.532;-1.478;2022-12-16T07:50:34;1.83;;;1.30;;
23146;SDS011;11742;53.532;-1.478;2022-12-16T07:53:19;2.40;;;1.00;;
23146;SDS011;11742;53.532;-1.478;2022-12-16T07:56:04;1.65;;;1.20;;
23146;SDS011;11742;53.532;-1.478;2022-12-16T07:58:48;2.13;;;1.30;;
23146;SDS011;11742;53.532;-1.478;2022-12-16T08:01:32;3.03;;;1.05;;
23146;SDS011;11742;53.532;-1.478;2022-12-16T08:04:17;2.88;;;1.15;;
23146;SDS011;11742;53.532;-1.478;2022-12-16T08:07:01;1.60;;;1.00;;
23146;SDS011;11742;53.532;-1.478;2022-12-16T08:09:46;2.10;;;1.20;;
23146;SDS011;11742;53.532;-1.478;2022-12-16T08:12:30;1.63;;;1.00;;
23146;SDS011;11742;53.532;-1.478;2022-12-16T08:15:14;2.28;;;1.10;;
23146;SDS011;11742;53.532;-1.478;2022-12-16T08:17:58;2.30;;;1.23;;
23146;SDS011;11742;53.532;-1.478;2022-12-16T08:20:43;2.10;;;1.40;;
23146;SDS011;11742;53.532;-1.478;2022-12-16T08:23:27;2.05;;;1.20;;
23146;SDS011;11742;53.532;-1.478;2022-12-16T08:26:11;2.40;;;1.35;;
23146;SDS011;11742;53.532;-1.478;2022-12-16T08:29:00;1.90;;;1.17;;
23146;SDS011;11742;53.532;-1.478;2022-12-16T08:31:44;2.25;;;1.10;;
23146;SDS011;11742;53.532;-1.478;2022-12-16T08:34:29;1.65;;;1.15;;
23146;SDS011;11742;53.532;-1.478;2022-12-16T08:37:13;2.42;;;1.23;;
23146;SDS011;11742;53.532;-1.478;2022-12-16T08:39:58;1.58;;;1.00;;
23146;SDS011;11742;53.532;-1.478;2022-12-16T08:42:43;2.42;;;1.27;;
23146;SDS011;11742;53.532;-1.478;2022-12-16T08:45:27;2.22;;;1.27;;
23146;SDS011;11742;53.532;-1.478;2022-12-16T08:48:11;2.10;;;1.30;;
23146;SDS011;11742;53.532;-1.478;2022-12-16T08:50:57;2.13;;;1.30;;
23146;SDS011;11742;53.532;-1.478;2022-12-16T08:53:44;1.80;;;1.20;;
23146;SDS011;11742;53.532;-1.478;2022-12-16T08:56:29;3.65;;;1.25;;
23146;SDS011;11742;53.532;-1.478;2022-12-16T08:59:13;2.58;;;1.33;;
23146;SDS011;11742;53.532;-1.478;2022-12-16T09:01:58;1.52;;;1.13;;
23146;SDS011;11742;53.532;-1.478;2022-12-16T09:04:42;2.70;;;0.93;;
23146;SDS011;11742;53.532;-1.478;2022-12-16T09:07:26;1.00;;;0.90;;
23146;SDS011;11742;53.532;-1.478;2022-12-16T09:10:10;1.50;;;1.15;;
23146;SDS011;11742;53.532;-1.478;2022-12-16T09:13:03;1.65;;;1.17;;
23146;SDS011;11742;53.532;-1.478;2022-12-16T09:15:51;3.50;;;1.27;;
23146;SDS011;11742;53.532;-1.478;2022-12-16T09:18:36;1.45;;;1.00;;
23146;SDS011;11742;53.532;-1.478;2022-12-16T09:21:20;2.53;;;1.00;;
23146;SDS011;11742;53.532;-1.478;2022-12-16T09:24:04;2.78;;;1.38;;
23146;SDS011;11742;53.532;-1.478;2022-12-16T09:26:49;7.25;;;1.95;;
23146;SDS011;11742;53.532;-1.478;2022-12-16T09:29:33;3.65;;;1.25;;
23146;SDS011;11742;53.532;-1.478;2022-12-16T09:32:17;2.47;;;1.08;;
23146;SDS011;11742;53.532;-1.478;2022-12-16T09:35:02;1.20;;;1.00;;
23146;SDS011;11742;53.532;-1.478;2022-12-16T09:37:47;2.65;;;1.08;;
23146;SDS011;11742;53.532;-1.478;2022-12-16T09:40:31;1.33;;;1.00;;
23146;SDS011;11742;53.532;-1.478;2022-12-16T09:43:28;1.35;;;0.98;;
23146;SDS011;11742;53.532;-1.478;2022-12-16T09:46:27;1.27;;;1.02;;
23146;SDS011;11742;53.532;-1.478;2022-12-16T09:52:41;1.90;;;1.17;;
23146;SDS011;11742;53.532;-1.478;2022-12-16T09:55:33;2.28;;;1.20;;
23146;SDS011;11742;53.532;-1.478;2022-12-16T09:58:23;3.45;;;1.20;;
23146;SDS011;11742;53.532;-1.478;2022-12-16T10:01:10;2.30;;;1.40;;
23146;SDS011;11742;53.532;-1.478;2022-12-16T10:03:56;1.58;;;1.08;;
23146;SDS011;11742;53.532;-1.478;2022-12-16T10:06:44;2.55;;;1.33;;
23146;SDS011;11742;53.532;-1.478;2022-12-16T10:21:10;3.55;;;1.27;;
23146;SDS011;11742;53.532;-1.478;2022-12-16T10:24:07;1.67;;;1.15;;
23146;SDS011;11742;53.532;-1.478;2022-12-16T10:27:01;2.55;;;1.40;;
23146;SDS011;11742;53.532;-1.478;2022-12-16T10:29:57;3.17;;;1.40;;
23146;SDS011;11742;53.532;-1.478;2022-12-16T10:32:45;1.77;;;1.30;;
23146;SDS011;11742;53.532;-1.478;2022-12-16T10:35:33;3.40;;;1.30;;
23146;SDS011;11742;53.532;-1.478;2022-12-16T10:41:38;3.35;;;1.90;;
23146;SDS011;11742;53.532;-1.478;2022-12-16T10:44:27;3.25;;;1.63;;
23146;SDS011;11742;53.532;-1.478;2022-12-16T10:47:23;2.80;;;1.52;;
23146;SDS011;11742;53.532;-1.478;2022-12-16T10:50:11;5.65;;;2.55;;
23146;SDS011;11742;53.532;-1.478;2022-12-16T10:52:58;3.97;;;2.30;;
23146;SDS011;11742;53.532;-1.478;2022-12-16T10:58:54;3.47;;;1.83;;
23146;SDS011;11742;53.532;-1.478;2022-12-16T11:01:40;6.07;;;1.70;;
23146;SDS011;11742;53.532;-1.478;2022-12-16T11:07:22;2.78;;;1.55;;
23146;SDS011;11742;53.532;-1.478;2022-12-16T11:10:29;3.83;;;1.85;;
23146;SDS011;11742;53.532;-1.478;2022-12-16T11:16:06;2.97;;;1.73;;
23146;SDS011;11742;53.532;-1.478;2022-12-16T11:18:56;3.90;;;2.50;;
23146;SDS011;11742;53.532;-1.478;2022-12-16T11:28:43;5.68;;;1.77;;
23146;SDS011;11742;53.532;-1.478;2022-12-16T11:31:28;3.20;;;1.85;;
23146;SDS011;11742;53.532;-1.478;2022-12-16T11:34:12;3.75;;;1.70;;
23146;SDS011;11742;53.532;-1.478;2022-12-16T11:40:23;3.08;;;1.85;;
23146;SDS011;11742;53.532;-1.478;2022-12-16T11:43:08;4.07;;;1.90;;
23146;SDS011;11742;53.532;-1.478;2022-12-16T11:45:56;3.25;;;2.00;;
23146;SDS011;11742;53.532;-1.478;2022-12-16T11:48:49;3.55;;;1.88;;
23146;SDS011;11742;53.532;-1.478;2022-12-16T11:51:41;2.60;;;1.55;;
23146;SDS011;11742;53.532;-1.478;2022-12-16T11:54:47;3.08;;;1.70;;
23146;SDS011;11742;53.532;-1.478;2022-12-16T11:57:47;2.63;;;1.30;;
23146;SDS011;11742;53.532;-1.478;2022-12-16T12:09:15;4.13;;;2.00;;
23146;SDS011;11742;53.532;-1.478;2022-12-16T12:15:12;4.30;;;2.35;;
23146;SDS011;11742;53.532;-1.478;2022-12-16T12:18:24;3.42;;;1.95;;
23146;SDS011;11742;53.532;-1.478;2022-12-16T12:21:26;3.40;;;1.88;;
23146;SDS011;11742;53.532;-1.478;2022-12-16T12:27:01;5.10;;;2.08;;
23146;SDS011;11742;53.532;-1.478;2022-12-16T12:30:03;3.75;;;1.67;;
23146;SDS011;11742;53.532;-1.478;2022-12-16T12:32:53;4.82;;;1.92;;
23146;SDS011;11742;53.532;-1.478;2022-12-16T12:44:42;2.60;;;1.55;;
23146;SDS011;11742;53.532;-1.478;2022-12-16T12:47:38;2.60;;;1.58;;
23146;SDS011;11742;53.532;-1.478;2022-12-16T12:50:32;5.93;;;2.77;;
23146;SDS011;11742;53.532;-1.478;2022-12-16T12:56:49;7.47;;;3.53;;
23146;SDS011;11742;53.532;-1.478;2022-12-16T13:03:12;22.05;;;2.50;;
23146;SDS011;11742;53.532;-1.478;2022-12-16T13:06:02;10.35;;;2.50;;
23146;SDS011;11742;53.532;-1.478;2022-12-16T13:11:34;11.00;;;2.08;;
23146;SDS011;11742;53.532;-1.478;2022-12-16T13:17:20;8.50;;;2.67;;
23146;SDS011;11742;53.532;-1.478;2022-12-16T13:23:30;5.47;;;2.10;;
23146;SDS011;11742;53.532;-1.478;2022-12-16T13:26:27;3.38;;;2.05;;
23146;SDS011;11742;53.532;-1.478;2022-12-16T13:37:59;3.08;;;1.95;;
23146;SDS011;11742;53.532;-1.478;2022-12-16T13:55:18;4.32;;;2.30;;
23146;SDS011;11742;53.532;-1.478;2022-12-16T14:01:21;4.03;;;2.42;;
23146;SDS011;11742;53.532;-1.478;2022-12-16T14:04:25;3.50;;;1.70;;
23146;SDS011;11742;53.532;-1.478;2022-12-16T14:07:16;3.13;;;2.10;;
23146;SDS011;11742;53.532;-1.478;2022-12-16T14:10:03;3.80;;;1.92;;
23146;SDS011;11742;53.532;-1.478;2022-12-16T14:13:00;4.53;;;2.10;;
23146;SDS011;11742;53.532;-1.478;2022-12-16T14:21:38;2.63;;;1.70;;
23146;SDS011;11742;53.532;-1.478;2022-12-16T14:24:29;3.33;;;1.77;;
23146;SDS011;11742;53.532;-1.478;2022-12-16T14:27:18;4.47;;;1.95;;
23146;SDS011;11742;53.532;-1.478;2022-12-16T14:30:37;3.95;;;2.30;;
23146;SDS011;11742;53.532;-1.478;2022-12-16T14:33:16;3.53;;;2.10;;
23146;SDS011;11742;53.532;-1.478;2022-12-16T14:36:00;4.93;;;2.00;;
23146;SDS011;11742;53.532;-1.478;2022-12-16T14:38:48;2.53;;;1.75;;
23146;SDS011;11742;53.532;-1.478;2022-12-16T14:41:32;2.58;;;1.60;;
23146;SDS011;11742;53.532;-1.478;2022-12-16T14:44:17;3.55;;;1.55;;
23146;SDS011;11742;53.532;-1.478;2022-12-16T14:47:16;3.25;;;1.58;;
23146;SDS011;11742;53.532;-1.478;2022-12-16T14:50:02;4.80;;;1.67;;
23146;SDS011;11742;53.532;-1.478;2022-12-16T14:53:17;3.05;;;1.83;;
23146;SDS011;11742;53.532;-1.478;2022-12-16T14:56:12;5.43;;;1.50;;
23146;SDS011;11742;53.532;-1.478;2022-12-16T14:59:16;2.83;;;1.50;;
23146;SDS011;11742;53.532;-1.478;2022-12-16T15:02:35;3.15;;;1.45;;
23146;SDS011;11742;53.532;-1.478;2022-12-16T15:05:23;3.63;;;1.60;;
23146;SDS011;11742;53.532;-1.478;2022-12-16T15:08:13;2.95;;;1.60;;
23146;SDS011;11742;53.532;-1.478;2022-12-16T15:10:57;3.35;;;1.45;;
23146;SDS011;11742;53.532;-1.478;2022-12-16T15:13:43;2.35;;;1.50;;
23146;SDS011;11742;53.532;-1.478;2022-12-16T15:16:30;3.45;;;2.08;;
23146;SDS011;11742;53.532;-1.478;2022-12-16T15:19:19;2.58;;;1.50;;
23146;SDS011;11742;53.532;-1.478;2022-12-16T15:22:05;3.55;;;1.48;;
23146;SDS011;11742;53.532;-1.478;2022-12-16T15:24:54;2.00;;;1.20;;
23146;SDS011;11742;53.532;-1.478;2022-12-16T15:27:39;1.75;;;1.23;;
23146;SDS011;11742;53.532;-1.478;2022-12-16T15:30:39;1.67;;;1.20;;
23146;SDS011;11742;53.532;-1.478;2022-12-16T15:33:27;2.42;;;1.10;;
23146;SDS011;11742;53.532;-1.478;2022-12-16T15:36:31;1.80;;;1.10;;
23146;SDS011;11742;53.532;-1.478;2022-12-16T15:39:36;2.38;;;1.25;;
23146;SDS011;11742;53.532;-1.478;2022-12-16T15:42:25;2.70;;;1.20;;
23146;SDS011;11742;53.532;-1.478;2022-12-16T15:45:18;1.63;;;1.10;;
23146;SDS011;11742;53.532;-1.478;2022-12-16T15:48:16;2.72;;;1.10;;
23146;SDS011;11742;53.532;-1.478;2022-12-16T15:54:19;3.03;;;0.90;;
23146;SDS011;11742;53.532;-1.478;2022-12-16T16:00:31;1.30;;;0.95;;
23146;SDS011;11742;53.532;-1.478;2022-12-16T16:03:15;1.42;;;1.00;;
23146;SDS011;11742;53.532;-1.478;2022-12-16T16:06:13;2.08;;;1.23;;
23146;SDS011;11742;53.532;-1.478;2022-12-16T16:12:04;2.50;;;1.40;;
23146;SDS011;11742;53.532;-1.478;2022-12-16T16:14:51;1.80;;;1.00;;
23146;SDS011;11742;53.532;-1.478;2022-12-16T16:17:35;1.75;;;0.95;;
23146;SDS011;11742;53.532;-1.478;2022-12-16T16:20:19;1.67;;;1.00;;
23146;SDS011;11742;53.532;-1.478;2022-12-16T16:23:04;2.33;;;1.45;;
23146;SDS011;11742;53.532;-1.478;2022-12-16T16:25:48;2.88;;;0.95;;
23146;SDS011;11742;53.532;-1.478;2022-12-16T16:28:33;1.38;;;1.10;;
23146;SDS011;11742;53.532;-1.478;2022-12-16T16:31:25;3.47;;;1.50;;
23146;SDS011;11742;53.532;-1.478;2022-12-16T16:34:09;2.83;;;1.80;;
23146;SDS011;11742;53.532;-1.478;2022-12-16T16:36:54;3.10;;;1.88;;
23146;SDS011;11742;53.532;-1.478;2022-12-16T16:39:40;5.60;;;2.38;;
23146;SDS011;11742;53.532;-1.478;2022-12-16T16:42:25;3.40;;;2.10;;
23146;SDS011;11742;53.532;-1.478;2022-12-16T16:45:11;3.42;;;1.98;;
23146;SDS011;11742;53.532;-1.478;2022-12-16T16:48:04;2.30;;;1.52;;
23146;SDS011;11742;53.532;-1.478;2022-12-16T16:50:54;2.58;;;1.52;;
23146;SDS011;11742;53.532;-1.478;2022-12-16T16:53:40;3.90;;;1.75;;
23146;SDS011;11742;53.532;-1.478;2022-12-16T16:56:24;3.28;;;1.92;;
23146;SDS011;11742;53.532;-1.478;2022-12-16T16:59:10;3.08;;;2.00;;
23146;SDS011;11742;53.532;-1.478;2022-12-16T17:01:55;2.67;;;1.52;;
23146;SDS011;11742;53.532;-1.478;2022-12-16T17:04:39;3.58;;;1.85;;
23146;SDS011;11742;53.532;-1.478;2022-12-16T17:07:24;4.15;;;1.95;;
23146;SDS011;11742;53.532;-1.478;2022-12-16T17:10:08;6.95;;;2.10;;
23146;SDS011;11742;53.532;-1.478;2022-12-16T17:12:53;2.88;;;1.90;;
23146;SDS011;11742;53.532;-1.478;2022-12-16T17:15:37;7.38;;;2.22;;
23146;SDS011;11742;53.532;-1.478;2022-12-16T17:18:22;4.00;;;1.98;;
23146;SDS011;11742;53.532;-1.478;2022-12-16T17:21:07;3.22;;;1.90;;
23146;SDS011;11742;53.532;-1.478;2022-12-16T17:23:51;3.92;;;2.13;;
23146;SDS011;11742;53.532;-1.478;2022-12-16T17:26:42;3.92;;;2.20;;
23146;SDS011;11742;53.532;-1.478;2022-12-16T17:29:27;3.42;;;1.98;;
23146;SDS011;11742;53.532;-1.478;2022-12-16T17:32:12;3.17;;;2.20;;
23146;SDS011;11742;53.532;-1.478;2022-12-16T17:34:56;2.75;;;1.95;;
23146;SDS011;11742;53.532;-1.478;2022-12-16T17:37:42;3.58;;;2.30;;
23146;SDS011;11742;53.532;-1.478;2022-12-16T17:40:26;3.70;;;2.22;;
23146;SDS011;11742;53.532;-1.478;2022-12-16T17:43:18;2.47;;;2.10;;
23146;SDS011;11742;53.532;-1.478;2022-12-16T17:46:04;4.53;;;1.88;;
23146;SDS011;11742;53.532;-1.478;2022-12-16T17:48:53;4.45;;;2.15;;
23146;SDS011;11742;53.532;-1.478;2022-12-16T17:51:39;3.00;;;2.22;;
23146;SDS011;11742;53.532;-1.478;2022-12-16T17:54:23;4.88;;;2.45;;
23146;SDS011;11742;53.532;-1.478;2022-12-16T17:57:08;5.10;;;2.15;;
23146;SDS011;11742;53.532;-1.478;2022-12-16T17:59:52;4.30;;;2.30;;
23146;SDS011;11742;53.532;-1.478;2022-12-16T18:02:37;5.60;;;2.60;;
23146;SDS011;11742;53.532;-1.478;2022-12-16T18:05:21;5.15;;;2.10;;
23146;SDS011;11742;53.532;-1.478;2022-12-16T18:08:05;4.88;;;1.95;;
23146;SDS011;11742;53.532;-1.478;2022-12-16T18:10:53;3.10;;;2.10;;
23146;SDS011;11742;53.532;-1.478;2022-12-16T18:13:39;4.15;;;2.13;;
23146;SDS011;11742;53.532;-1.478;2022-12-16T18:16:24;3.00;;;1.98;;
23146;SDS011;11742;53.532;-1.478;2022-12-16T18:19:11;4.78;;;2.20;;
23146;SDS011;11742;53.532;-1.478;2022-12-16T18:21:57;3.35;;;2.15;;
23146;SDS011;11742;53.532;-1.478;2022-12-16T18:24:42;3.75;;;2.03;;
23146;SDS011;11742;53.532;-1.478;2022-12-16T18:27:26;4.43;;;2.50;;
23146;SDS011;11742;53.532;-1.478;2022-12-16T18:30:11;3.70;;;2.13;;
23146;SDS011;11742;53.532;-1.478;2022-12-16T18:32:55;3.47;;;2.58;;